sensor_id;sensor_type;location;lat;lon;timestamp;P1;durP1;ratioP1;P2;durP2;ratioP2
75639;SDS011;64233;51.486;6.332;2024-01-15T00:01:26;4.22;;;3.45;;
75639;SDS011;64233;51.486;6.332;2024-01-15T00:03:52;13.43;;;5.88;;
75639;SDS011;64233;51.486;6.332;2024-01-15T00:06:17;8.40;;;4.00;;
75639;SDS011;64233;51.486;6.332;2024-01-15T00:08:42;6.03;;;3.65;;
75639;SDS011;64233;51.486;6.332;2024-01-15T00:11:08;13.52;;;5.47;;
75639;SDS011;64233;51.486;6.332;2024-01-15T00:13:33;4.55;;;3.67;;
75639;SDS011;64233;51.486;6.332;2024-01-15T00:15:58;4.00;;;2.50;;
75639;SDS011;64233;51.486;6.332;2024-01-15T00:18:24;12.48;;;5.00;;
75639;SDS011;64233;51.486;6.332;2024-01-15T00:20:49;6.38;;;3.28;;
75639;SDS011;64233;51.486;6.332;2024-01-15T00:23:14;9.10;;;5.00;;
75639;SDS011;64233;51.486;6.332;2024-01-15T00:25:40;4.85;;;3.78;;
75639;SDS011;64233;51.486;6.332;2024-01-15T00:28:06;9.85;;;5.93;;
75639;SDS011;64233;51.486;6.332;2024-01-15T00:30:31;9.00;;;4.25;;
75639;SDS011;64233;51.486;6.332;2024-01-15T00:32:56;6.05;;;3.72;;
75639;SDS011;64233;51.486;6.332;2024-01-15T00:35:22;9.15;;;4.00;;
75639;SDS011;64233;51.486;6.332;2024-01-15T00:37:47;12.48;;;5.20;;
75639;SDS011;64233;51.486;6.332;2024-01-15T00:40:12;11.55;;;4.65;;
75639;SDS011;64233;51.486;6.332;2024-01-15T00:42:38;11.25;;;5.00;;
75639;SDS011;64233;51.486;6.332;2024-01-15T00:45:03;3.67;;;3.15;;
75639;SDS011;64233;51.486;6.332;2024-01-15T00:47:30;5.00;;;2.97;;
75639;SDS011;64233;51.486;6.332;2024-01-15T00:49:55;6.07;;;2.92;;
75639;SDS011;64233;51.486;6.332;2024-01-15T00:52:21;8.93;;;5.07;;
75639;SDS011;64233;51.486;6.332;2024-01-15T00:54:46;19.90;;;5.93;;
75639;SDS011;64233;51.486;6.332;2024-01-15T00:57:11;1.52;;;1.35;;
75639;SDS011;64233;51.486;6.332;2024-01-15T00:59:36;5.50;;;3.42;;
75639;SDS011;64233;51.486;6.332;2024-01-15T01:02:02;13.23;;;4.40;;
75639;SDS011;64233;51.486;6.332;2024-01-15T01:04:28;11.95;;;6.18;;
75639;SDS011;64233;51.486;6.332;2024-01-15T01:06:53;10.77;;;4.55;;
75639;SDS011;64233;51.486;6.332;2024-01-15T01:09:18;7.63;;;3.42;;
75639;SDS011;64233;51.486;6.332;2024-01-15T01:11:44;8.57;;;4.50;;
75639;SDS011;64233;51.486;6.332;2024-01-15T01:14:09;6.53;;;4.45;;
75639;SDS011;64233;51.486;6.332;2024-01-15T01:16:34;9.10;;;3.90;;
75639;SDS011;64233;51.486;6.332;2024-01-15T01:19:04;4.85;;;2.10;;
75639;SDS011;64233;51.486;6.332;2024-01-15T01:21:32;5.78;;;3.80;;
75639;SDS011;64233;51.486;6.332;2024-01-15T01:23:58;2.50;;;1.50;;
75639;SDS011;64233;51.486;6.332;2024-01-15T01:26:23;7.57;;;3.30;;
75639;SDS011;64233;51.486;6.332;2024-01-15T01:28:49;4.88;;;3.58;;
75639;SDS011;64233;51.486;6.332;2024-01-15T01:31:14;9.18;;;4.32;;
75639;SDS011;64233;51.486;6.332;2024-01-15T01:33:41;4.85;;;3.25;;
75639;SDS011;64233;51.486;6.332;2024-01-15T01:36:07;4.72;;;2.55;;
75639;SDS011;64233;51.486;6.332;2024-01-15T01:38:37;9.57;;;4.97;;
75639;SDS011;64233;51.486;6.332;2024-01-15T01:41:03;3.50;;;2.40;;
75639;SDS011;64233;51.486;6.332;2024-01-15T01:43:28;3.72;;;3.25;;
75639;SDS011;64233;51.486;6.332;2024-01-15T01:45:54;7.95;;;5.35;;
75639;SDS011;64233;51.486;6.332;2024-01-15T01:48:21;10.32;;;5.90;;
75639;SDS011;64233;51.486;6.332;2024-01-15T01:50:47;10.25;;;5.65;;
75639;SDS011;64233;51.486;6.332;2024-01-15T01:53:12;2.47;;;1.80;;
75639;SDS011;64233;51.486;6.332;2024-01-15T01:55:38;10.30;;;3.67;;
75639;SDS011;64233;51.486;6.332;2024-01-15T01:58:04;4.72;;;3.00;;
75639;SDS011;64233;51.486;6.332;2024-01-15T02:00:30;4.40;;;3.97;;
75639;SDS011;64233;51.486;6.332;2024-01-15T02:02:57;13.90;;;3.25;;
75639;SDS011;64233;51.486;6.332;2024-01-15T02:05:22;3.35;;;2.88;;
75639;SDS011;64233;51.486;6.332;2024-01-15T02:07:48;2.75;;;2.17;;
75639;SDS011;64233;51.486;6.332;2024-01-15T02:10:13;10.15;;;5.25;;
75639;SDS011;64233;51.486;6.332;2024-01-15T02:12:39;8.82;;;3.88;;
75639;SDS011;64233;51.486;6.332;2024-01-15T02:15:04;4.78;;;2.50;;
75639;SDS011;64233;51.486;6.332;2024-01-15T02:17:30;5.47;;;2.90;;
75639;SDS011;64233;51.486;6.332;2024-01-15T02:19:55;1.02;;;0.98;;
75639;SDS011;64233;51.486;6.332;2024-01-15T02:22:20;4.50;;;3.72;;
75639;SDS011;64233;51.486;6.332;2024-01-15T02:24:46;6.03;;;3.47;;
75639;SDS011;64233;51.486;6.332;2024-01-15T02:27:11;6.35;;;3.13;;
75639;SDS011;64233;51.486;6.332;2024-01-15T02:29:36;1.85;;;1.73;;
75639;SDS011;64233;51.486;6.332;2024-01-15T02:32:05;5.75;;;3.05;;
75639;SDS011;64233;51.486;6.332;2024-01-15T02:34:32;5.65;;;2.10;;
75639;SDS011;64233;51.486;6.332;2024-01-15T02:36:57;3.97;;;3.22;;
75639;SDS011;64233;51.486;6.332;2024-01-15T02:39:22;2.28;;;1.70;;
75639;SDS011;64233;51.486;6.332;2024-01-15T02:41:48;1.67;;;1.38;;
75639;SDS011;64233;51.486;6.332;2024-01-15T02:44:13;2.22;;;2.03;;
75639;SDS011;64233;51.486;6.332;2024-01-15T02:46:41;3.15;;;2.38;;
75639;SDS011;64233;51.486;6.332;2024-01-15T02:49:06;5.80;;;3.10;;
75639;SDS011;64233;51.486;6.332;2024-01-15T02:51:31;1.95;;;1.75;;
75639;SDS011;64233;51.486;6.332;2024-01-15T02:53:57;5.22;;;2.58;;
75639;SDS011;64233;51.486;6.332;2024-01-15T02:56:22;1.67;;;1.42;;
75639;SDS011;64233;51.486;6.332;2024-01-15T02:58:47;5.90;;;2.65;;
75639;SDS011;64233;51.486;6.332;2024-01-15T03:01:13;1.98;;;1.88;;
75639;SDS011;64233;51.486;6.332;2024-01-15T03:03:39;1.90;;;1.80;;
75639;SDS011;64233;51.486;6.332;2024-01-15T03:06:05;5.25;;;2.92;;
75639;SDS011;64233;51.486;6.332;2024-01-15T03:08:31;6.00;;;2.13;;
75639;SDS011;64233;51.486;6.332;2024-01-15T03:10:56;6.93;;;2.40;;
75639;SDS011;64233;51.486;6.332;2024-01-15T03:13:21;4.30;;;2.63;;
75639;SDS011;64233;51.486;6.332;2024-01-15T03:15:47;1.88;;;1.70;;
75639;SDS011;64233;51.486;6.332;2024-01-15T03:18:12;6.18;;;2.65;;
75639;SDS011;64233;51.486;6.332;2024-01-15T03:20:37;12.80;;;2.10;;
75639;SDS011;64233;51.486;6.332;2024-01-15T03:23:02;5.68;;;2.50;;
75639;SDS011;64233;51.486;6.332;2024-01-15T03:25:28;6.38;;;3.50;;
75639;SDS011;64233;51.486;6.332;2024-01-15T03:27:53;3.45;;;2.33;;
75639;SDS011;64233;51.486;6.332;2024-01-15T03:30:18;2.75;;;1.73;;
75639;SDS011;64233;51.486;6.332;2024-01-15T03:32:44;4.47;;;2.72;;
75639;SDS011;64233;51.486;6.332;2024-01-15T03:35:09;4.28;;;2.78;;
75639;SDS011;64233;51.486;6.332;2024-01-15T03:37:34;1.23;;;0.90;;
75639;SDS011;64233;51.486;6.332;2024-01-15T03:40:00;2.15;;;1.92;;
75639;SDS011;64233;51.486;6.332;2024-01-15T03:42:25;2.78;;;2.25;;
75639;SDS011;64233;51.486;6.332;2024-01-15T03:44:51;1.05;;;0.95;;
75639;SDS011;64233;51.486;6.332;2024-01-15T03:47:16;5.15;;;2.35;;
75639;SDS011;64233;51.486;6.332;2024-01-15T03:49:41;3.78;;;2.55;;
75639;SDS011;64233;51.486;6.332;2024-01-15T03:52:07;2.30;;;1.90;;
75639;SDS011;64233;51.486;6.332;2024-01-15T03:54:32;1.73;;;1.60;;
75639;SDS011;64233;51.486;6.332;2024-01-15T03:56:57;4.03;;;2.15;;
75639;SDS011;64233;51.486;6.332;2024-01-15T03:59:22;2.95;;;2.67;;
75639;SDS011;64233;51.486;6.332;2024-01-15T04:01:51;1.73;;;1.63;;
75639;SDS011;64233;51.486;6.332;2024-01-15T04:04:16;1.23;;;1.15;;
75639;SDS011;64233;51.486;6.332;2024-01-15T04:06:42;3.08;;;1.55;;
75639;SDS011;64233;51.486;6.332;2024-01-15T04:09:07;3.83;;;2.17;;
75639;SDS011;64233;51.486;6.332;2024-01-15T04:11:33;2.25;;;1.60;;
75639;SDS011;64233;51.486;6.332;2024-01-15T04:13:58;5.18;;;2.15;;
75639;SDS011;64233;51.486;6.332;2024-01-15T04:16:23;2.75;;;1.88;;
75639;SDS011;64233;51.486;6.332;2024-01-15T04:18:48;3.70;;;2.58;;
75639;SDS011;64233;51.486;6.332;2024-01-15T04:21:14;1.90;;;1.55;;
75639;SDS011;64233;51.486;6.332;2024-01-15T04:23:39;3.92;;;2.05;;
75639;SDS011;64233;51.486;6.332;2024-01-15T04:26:04;1.38;;;1.27;;
75639;SDS011;64233;51.486;6.332;2024-01-15T04:28:30;6.13;;;2.58;;
75639;SDS011;64233;51.486;6.332;2024-01-15T04:30:55;1.75;;;1.65;;
75639;SDS011;64233;51.486;6.332;2024-01-15T04:33:20;1.15;;;1.00;;
75639;SDS011;64233;51.486;6.332;2024-01-15T04:35:45;0.65;;;0.65;;
75639;SDS011;64233;51.486;6.332;2024-01-15T04:38:11;1.02;;;0.93;;
75639;SDS011;64233;51.486;6.332;2024-01-15T04:40:36;1.10;;;1.08;;
75639;SDS011;64233;51.486;6.332;2024-01-15T04:43:01;0.82;;;0.63;;
75639;SDS011;64233;51.486;6.332;2024-01-15T04:45:27;5.82;;;1.55;;
75639;SDS011;64233;51.486;6.332;2024-01-15T04:47:55;2.75;;;2.00;;
75639;SDS011;64233;51.486;6.332;2024-01-15T04:50:23;2.72;;;1.73;;
75639;SDS011;64233;51.486;6.332;2024-01-15T04:52:49;3.78;;;1.25;;
75639;SDS011;64233;51.486;6.332;2024-01-15T04:55:14;3.22;;;1.85;;
75639;SDS011;64233;51.486;6.332;2024-01-15T04:57:40;1.85;;;1.40;;
75639;SDS011;64233;51.486;6.332;2024-01-15T05:00:05;1.45;;;1.30;;
75639;SDS011;64233;51.486;6.332;2024-01-15T05:02:31;2.85;;;1.52;;
75639;SDS011;64233;51.486;6.332;2024-01-15T05:04:57;2.97;;;2.08;;
75639;SDS011;64233;51.486;6.332;2024-01-15T05:07:22;2.72;;;1.83;;
75639;SDS011;64233;51.486;6.332;2024-01-15T05:09:47;4.40;;;2.80;;
75639;SDS011;64233;51.486;6.332;2024-01-15T05:12:15;5.45;;;2.40;;
75639;SDS011;64233;51.486;6.332;2024-01-15T05:14:41;4.47;;;2.20;;
75639;SDS011;64233;51.486;6.332;2024-01-15T05:17:06;2.60;;;1.92;;
75639;SDS011;64233;51.486;6.332;2024-01-15T05:19:32;2.47;;;2.23;;
75639;SDS011;64233;51.486;6.332;2024-01-15T05:21:57;6.72;;;2.45;;
75639;SDS011;64233;51.486;6.332;2024-01-15T05:24:22;2.58;;;1.33;;
75639;SDS011;64233;51.486;6.332;2024-01-15T05:26:47;1.73;;;1.17;;
75639;SDS011;64233;51.486;6.332;2024-01-15T05:29:13;1.37;;;1.20;;
75639;SDS011;64233;51.486;6.332;2024-01-15T05:31:38;3.38;;;1.58;;
75639;SDS011;64233;51.486;6.332;2024-01-15T05:34:03;2.92;;;1.23;;
75639;SDS011;64233;51.486;6.332;2024-01-15T05:36:29;1.63;;;1.13;;
75639;SDS011;64233;51.486;6.332;2024-01-15T05:38:54;4.20;;;1.40;;
75639;SDS011;64233;51.486;6.332;2024-01-15T05:41:19;2.00;;;1.90;;
75639;SDS011;64233;51.486;6.332;2024-01-15T05:43:45;0.50;;;0.50;;
75639;SDS011;64233;51.486;6.332;2024-01-15T05:46:10;1.02;;;0.93;;
75639;SDS011;64233;51.486;6.332;2024-01-15T05:48:35;1.20;;;1.02;;
75639;SDS011;64233;51.486;6.332;2024-01-15T05:51:01;1.60;;;1.50;;
75639;SDS011;64233;51.486;6.332;2024-01-15T05:53:27;2.38;;;1.35;;
75639;SDS011;64233;51.486;6.332;2024-01-15T05:55:52;1.02;;;0.95;;
75639;SDS011;64233;51.486;6.332;2024-01-15T05:58:19;0.52;;;0.52;;
75639;SDS011;64233;51.486;6.332;2024-01-15T06:00:44;1.48;;;1.05;;
75639;SDS011;64233;51.486;6.332;2024-01-15T06:03:10;4.68;;;1.25;;
75639;SDS011;64233;51.486;6.332;2024-01-15T06:05:35;0.73;;;0.73;;
75639;SDS011;64233;51.486;6.332;2024-01-15T06:08:01;0.73;;;0.70;;
75639;SDS011;64233;51.486;6.332;2024-01-15T06:10:26;0.40;;;0.40;;
75639;SDS011;64233;51.486;6.332;2024-01-15T06:12:51;0.60;;;0.60;;
75639;SDS011;64233;51.486;6.332;2024-01-15T06:15:17;0.68;;;0.68;;
75639;SDS011;64233;51.486;6.332;2024-01-15T06:17:42;0.80;;;0.80;;
75639;SDS011;64233;51.486;6.332;2024-01-15T06:20:07;2.33;;;2.05;;
75639;SDS011;64233;51.486;6.332;2024-01-15T06:22:34;0.60;;;0.60;;
75639;SDS011;64233;51.486;6.332;2024-01-15T06:25:00;1.00;;;0.70;;
75639;SDS011;64233;51.486;6.332;2024-01-15T06:27:26;1.85;;;1.25;;
75639;SDS011;64233;51.486;6.332;2024-01-15T06:29:51;1.63;;;0.70;;
75639;SDS011;64233;51.486;6.332;2024-01-15T06:32:16;0.50;;;0.50;;
75639;SDS011;64233;51.486;6.332;2024-01-15T06:34:41;2.38;;;0.80;;
75639;SDS011;64233;51.486;6.332;2024-01-15T06:37:07;0.40;;;0.40;;
75639;SDS011;64233;51.486;6.332;2024-01-15T06:39:32;0.60;;;0.60;;
75639;SDS011;64233;51.486;6.332;2024-01-15T06:41:57;1.90;;;1.00;;
75639;SDS011;64233;51.486;6.332;2024-01-15T06:44:23;0.52;;;0.52;;
75639;SDS011;64233;51.486;6.332;2024-01-15T06:46:48;1.52;;;0.90;;
75639;SDS011;64233;51.486;6.332;2024-01-15T06:49:13;0.90;;;0.88;;
75639;SDS011;64233;51.486;6.332;2024-01-15T06:51:39;1.60;;;0.57;;
75639;SDS011;64233;51.486;6.332;2024-01-15T06:54:04;0.65;;;0.65;;
75639;SDS011;64233;51.486;6.332;2024-01-15T06:56:30;0.80;;;0.63;;
75639;SDS011;64233;51.486;6.332;2024-01-15T06:58:56;0.60;;;0.60;;
75639;SDS011;64233;51.486;6.332;2024-01-15T07:01:21;0.50;;;0.50;;
75639;SDS011;64233;51.486;6.332;2024-01-15T07:03:47;0.85;;;0.85;;
75639;SDS011;64233;51.486;6.332;2024-01-15T07:06:15;1.40;;;1.02;;
75639;SDS011;64233;51.486;6.332;2024-01-15T07:08:41;0.38;;;0.38;;
75639;SDS011;64233;51.486;6.332;2024-01-15T07:11:07;2.22;;;0.95;;
75639;SDS011;64233;51.486;6.332;2024-01-15T07:13:32;1.02;;;0.95;;
75639;SDS011;64233;51.486;6.332;2024-01-15T07:15:58;3.97;;;2.22;;
75639;SDS011;64233;51.486;6.332;2024-01-15T07:18:23;1.77;;;1.67;;
75639;SDS011;64233;51.486;6.332;2024-01-15T07:20:49;1.15;;;1.10;;
75639;SDS011;64233;51.486;6.332;2024-01-15T07:23:14;2.65;;;1.90;;
75639;SDS011;64233;51.486;6.332;2024-01-15T07:25:39;1.50;;;1.23;;
75639;SDS011;64233;51.486;6.332;2024-01-15T07:28:05;5.10;;;3.28;;
75639;SDS011;64233;51.486;6.332;2024-01-15T07:30:30;4.07;;;1.70;;
75639;SDS011;64233;51.486;6.332;2024-01-15T07:32:55;2.53;;;2.17;;
75639;SDS011;64233;51.486;6.332;2024-01-15T07:35:21;0.80;;;0.80;;
75639;SDS011;64233;51.486;6.332;2024-01-15T07:37:47;2.40;;;1.85;;
75639;SDS011;64233;51.486;6.332;2024-01-15T07:40:12;1.85;;;1.40;;
75639;SDS011;64233;51.486;6.332;2024-01-15T07:42:37;4.80;;;2.45;;
75639;SDS011;64233;51.486;6.332;2024-01-15T07:45:07;4.07;;;2.30;;
75639;SDS011;64233;51.486;6.332;2024-01-15T07:47:33;5.95;;;3.53;;
75639;SDS011;64233;51.486;6.332;2024-01-15T07:49:58;2.03;;;1.88;;
75639;SDS011;64233;51.486;6.332;2024-01-15T07:52:24;2.28;;;1.88;;
75639;SDS011;64233;51.486;6.332;2024-01-15T07:54:49;3.95;;;2.20;;
75639;SDS011;64233;51.486;6.332;2024-01-15T07:57:14;2.97;;;2.05;;
75639;SDS011;64233;51.486;6.332;2024-01-15T07:59:40;3.08;;;2.58;;
75639;SDS011;64233;51.486;6.332;2024-01-15T08:02:05;4.88;;;2.20;;
75639;SDS011;64233;51.486;6.332;2024-01-15T08:04:30;5.72;;;2.72;;
75639;SDS011;64233;51.486;6.332;2024-01-15T08:06:55;3.10;;;2.00;;
75639;SDS011;64233;51.486;6.332;2024-01-15T08:09:22;5.68;;;2.80;;
75639;SDS011;64233;51.486;6.332;2024-01-15T08:11:47;3.50;;;2.85;;
75639;SDS011;64233;51.486;6.332;2024-01-15T08:14:14;7.38;;;2.70;;
75639;SDS011;64233;51.486;6.332;2024-01-15T08:16:39;1.92;;;1.55;;
75639;SDS011;64233;51.486;6.332;2024-01-15T08:19:05;2.83;;;2.35;;
75639;SDS011;64233;51.486;6.332;2024-01-15T08:21:30;5.22;;;2.88;;
75639;SDS011;64233;51.486;6.332;2024-01-15T08:23:57;6.43;;;2.92;;
75639;SDS011;64233;51.486;6.332;2024-01-15T08:26:25;3.85;;;2.42;;
75639;SDS011;64233;51.486;6.332;2024-01-15T08:28:51;2.78;;;2.47;;
75639;SDS011;64233;51.486;6.332;2024-01-15T08:31:16;3.55;;;2.80;;
75639;SDS011;64233;51.486;6.332;2024-01-15T08:33:42;4.95;;;2.80;;
75639;SDS011;64233;51.486;6.332;2024-01-15T08:36:07;4.28;;;2.45;;
75639;SDS011;64233;51.486;6.332;2024-01-15T08:38:32;6.55;;;2.75;;
75639;SDS011;64233;51.486;6.332;2024-01-15T08:40:58;4.20;;;2.22;;
75639;SDS011;64233;51.486;6.332;2024-01-15T08:43:25;3.03;;;2.35;;
75639;SDS011;64233;51.486;6.332;2024-01-15T08:45:50;2.20;;;1.90;;
75639;SDS011;64233;51.486;6.332;2024-01-15T08:48:16;1.63;;;1.42;;
75639;SDS011;64233;51.486;6.332;2024-01-15T08:50:41;1.33;;;1.08;;
75639;SDS011;64233;51.486;6.332;2024-01-15T08:53:07;0.65;;;0.65;;
75639;SDS011;64233;51.486;6.332;2024-01-15T08:55:32;1.38;;;0.90;;
75639;SDS011;64233;51.486;6.332;2024-01-15T08:57:57;2.30;;;1.67;;
75639;SDS011;64233;51.486;6.332;2024-01-15T09:00:23;1.38;;;1.25;;
75639;SDS011;64233;51.486;6.332;2024-01-15T09:02:48;0.93;;;0.90;;
75639;SDS011;64233;51.486;6.332;2024-01-15T09:05:14;1.95;;;1.38;;
75639;SDS011;64233;51.486;6.332;2024-01-15T09:07:39;2.00;;;1.70;;
75639;SDS011;64233;51.486;6.332;2024-01-15T09:10:05;3.00;;;1.00;;
75639;SDS011;64233;51.486;6.332;2024-01-15T09:12:30;1.45;;;1.15;;
75639;SDS011;64233;51.486;6.332;2024-01-15T09:14:55;1.15;;;1.05;;
75639;SDS011;64233;51.486;6.332;2024-01-15T09:17:21;1.65;;;1.50;;
75639;SDS011;64233;51.486;6.332;2024-01-15T09:19:48;1.17;;;1.08;;
75639;SDS011;64233;51.486;6.332;2024-01-15T09:22:14;1.42;;;1.33;;
75639;SDS011;64233;51.486;6.332;2024-01-15T09:24:43;1.65;;;1.55;;
75639;SDS011;64233;51.486;6.332;2024-01-15T09:27:08;1.50;;;0.85;;
75639;SDS011;64233;51.486;6.332;2024-01-15T09:29:33;1.23;;;1.13;;
75639;SDS011;64233;51.486;6.332;2024-01-15T09:32:01;0.60;;;0.60;;
75639;SDS011;64233;51.486;6.332;2024-01-15T09:34:28;1.58;;;1.40;;
75639;SDS011;64233;51.486;6.332;2024-01-15T09:36:53;0.38;;;0.38;;
75639;SDS011;64233;51.486;6.332;2024-01-15T09:39:18;1.08;;;0.90;;
75639;SDS011;64233;51.486;6.332;2024-01-15T09:41:44;1.30;;;1.20;;
75639;SDS011;64233;51.486;6.332;2024-01-15T09:44:09;3.53;;;0.77;;
75639;SDS011;64233;51.486;6.332;2024-01-15T09:46:35;0.57;;;0.57;;
75639;SDS011;64233;51.486;6.332;2024-01-15T09:49:01;1.13;;;1.02;;
75639;SDS011;64233;51.486;6.332;2024-01-15T09:51:28;1.25;;;1.13;;
75639;SDS011;64233;51.486;6.332;2024-01-15T09:53:57;1.85;;;0.77;;
75639;SDS011;64233;51.486;6.332;2024-01-15T09:56:23;0.75;;;0.75;;
75639;SDS011;64233;51.486;6.332;2024-01-15T09:58:48;1.80;;;1.48;;
75639;SDS011;64233;51.486;6.332;2024-01-15T10:01:16;2.28;;;1.13;;
75639;SDS011;64233;51.486;6.332;2024-01-15T10:03:48;1.20;;;1.00;;
75639;SDS011;64233;51.486;6.332;2024-01-15T10:06:16;1.13;;;1.02;;
75639;SDS011;64233;51.486;6.332;2024-01-15T10:08:43;2.03;;;1.48;;
75639;SDS011;64233;51.486;6.332;2024-01-15T10:11:13;1.85;;;1.33;;
75639;SDS011;64233;51.486;6.332;2024-01-15T10:13:38;2.20;;;1.55;;
75639;SDS011;64233;51.486;6.332;2024-01-15T10:16:04;1.33;;;1.23;;
75639;SDS011;64233;51.486;6.332;2024-01-15T10:18:29;1.08;;;0.98;;
75639;SDS011;64233;51.486;6.332;2024-01-15T10:20:55;1.10;;;0.88;;
75639;SDS011;64233;51.486;6.332;2024-01-15T10:23:22;0.60;;;0.60;;
75639;SDS011;64233;51.486;6.332;2024-01-15T10:25:48;1.40;;;1.27;;
75639;SDS011;64233;51.486;6.332;2024-01-15T10:28:16;1.02;;;0.90;;
75639;SDS011;64233;51.486;6.332;2024-01-15T10:30:44;0.93;;;0.93;;
75639;SDS011;64233;51.486;6.332;2024-01-15T10:33:09;0.52;;;0.52;;
75639;SDS011;64233;51.486;6.332;2024-01-15T10:35:36;1.25;;;1.15;;
75639;SDS011;64233;51.486;6.332;2024-01-15T10:38:03;1.45;;;1.38;;
75639;SDS011;64233;51.486;6.332;2024-01-15T10:40:29;2.35;;;2.08;;
75639;SDS011;64233;51.486;6.332;2024-01-15T10:42:54;1.50;;;1.40;;
75639;SDS011;64233;51.486;6.332;2024-01-15T10:45:20;2.20;;;1.75;;
75639;SDS011;64233;51.486;6.332;2024-01-15T10:47:46;0.80;;;0.80;;
75639;SDS011;64233;51.486;6.332;2024-01-15T10:50:11;1.10;;;1.10;;
75639;SDS011;64233;51.486;6.332;2024-01-15T10:52:37;2.13;;;1.63;;
75639;SDS011;64233;51.486;6.332;2024-01-15T10:55:05;1.35;;;1.25;;
75639;SDS011;64233;51.486;6.332;2024-01-15T10:57:35;1.67;;;1.58;;
75639;SDS011;64233;51.486;6.332;2024-01-15T11:00:02;0.95;;;0.88;;
75639;SDS011;64233;51.486;6.332;2024-01-15T11:02:30;0.60;;;0.60;;
75639;SDS011;64233;51.486;6.332;2024-01-15T11:04:58;1.63;;;1.52;;
75639;SDS011;64233;51.486;6.332;2024-01-15T11:07:24;1.73;;;1.60;;
75639;SDS011;64233;51.486;6.332;2024-01-15T11:09:49;1.75;;;1.30;;
75639;SDS011;64233;51.486;6.332;2024-01-15T11:12:15;1.27;;;0.98;;
75639;SDS011;64233;51.486;6.332;2024-01-15T11:14:45;0.80;;;0.80;;
75639;SDS011;64233;51.486;6.332;2024-01-15T11:17:15;2.03;;;1.40;;
75639;SDS011;64233;51.486;6.332;2024-01-15T11:22:09;0.63;;;0.63;;
75639;SDS011;64233;51.486;6.332;2024-01-15T11:24:53;0.50;;;0.50;;
75639;SDS011;64233;51.486;6.332;2024-01-15T11:27:19;0.70;;;0.60;;
75639;SDS011;64233;51.486;6.332;2024-01-15T11:30:07;1.02;;;1.02;;
75639;SDS011;64233;51.486;6.332;2024-01-15T11:32:34;0.57;;;0.57;;
75639;SDS011;64233;51.486;6.332;2024-01-15T11:35:01;1.15;;;1.02;;
75639;SDS011;64233;51.486;6.332;2024-01-15T11:37:28;0.80;;;0.80;;
75639;SDS011;64233;51.486;6.332;2024-01-15T11:39:55;0.65;;;0.60;;
75639;SDS011;64233;51.486;6.332;2024-01-15T11:42:25;1.85;;;1.10;;
75639;SDS011;64233;51.486;6.332;2024-01-15T11:44:50;2.17;;;0.77;;
75639;SDS011;64233;51.486;6.332;2024-01-15T11:47:16;0.55;;;0.50;;
75639;SDS011;64233;51.486;6.332;2024-01-15T11:50:02;1.60;;;1.50;;
75639;SDS011;64233;51.486;6.332;2024-01-15T11:52:38;0.75;;;0.60;;
75639;SDS011;64233;51.486;6.332;2024-01-15T11:55:25;2.03;;;0.73;;
75639;SDS011;64233;51.486;6.332;2024-01-15T11:57:53;1.50;;;0.65;;
75639;SDS011;64233;51.486;6.332;2024-01-15T12:00:19;0.45;;;0.45;;
75639;SDS011;64233;51.486;6.332;2024-01-15T12:02:46;1.95;;;0.85;;
75639;SDS011;64233;51.486;6.332;2024-01-15T12:05:12;12.95;;;0.95;;
75639;SDS011;64233;51.486;6.332;2024-01-15T12:07:39;1.08;;;0.95;;
75639;SDS011;64233;51.486;6.332;2024-01-15T12:10:12;0.47;;;0.47;;
75639;SDS011;64233;51.486;6.332;2024-01-15T12:12:57;1.02;;;0.68;;
75639;SDS011;64233;51.486;6.332;2024-01-15T12:15:25;0.93;;;0.80;;
75639;SDS011;64233;51.486;6.332;2024-01-15T12:17:51;4.28;;;1.58;;
75639;SDS011;64233;51.486;6.332;2024-01-15T12:20:17;1.58;;;1.10;;
75639;SDS011;64233;51.486;6.332;2024-01-15T12:22:43;0.40;;;0.40;;
75639;SDS011;64233;51.486;6.332;2024-01-15T12:25:09;1.13;;;0.82;;
75639;SDS011;64233;51.486;6.332;2024-01-15T12:27:34;1.02;;;0.95;;
75639;SDS011;64233;51.486;6.332;2024-01-15T12:30:00;0.63;;;0.63;;
75639;SDS011;64233;51.486;6.332;2024-01-15T12:32:25;2.28;;;0.90;;
75639;SDS011;64233;51.486;6.332;2024-01-15T12:34:51;2.10;;;1.08;;
75639;SDS011;64233;51.486;6.332;2024-01-15T12:37:19;0.63;;;0.63;;
75639;SDS011;64233;51.486;6.332;2024-01-15T12:39:45;0.82;;;0.82;;
75639;SDS011;64233;51.486;6.332;2024-01-15T12:42:11;7.28;;;1.50;;
75639;SDS011;64233;51.486;6.332;2024-01-15T12:44:39;1.00;;;0.95;;
75639;SDS011;64233;51.486;6.332;2024-01-15T12:47:04;0.90;;;0.88;;
75639;SDS011;64233;51.486;6.332;2024-01-15T12:49:30;1.20;;;1.15;;
75639;SDS011;64233;51.486;6.332;2024-01-15T12:51:58;1.30;;;1.20;;
75639;SDS011;64233;51.486;6.332;2024-01-15T12:54:25;4.03;;;1.95;;
75639;SDS011;64233;51.486;6.332;2024-01-15T12:56:51;0.70;;;0.70;;
75639;SDS011;64233;51.486;6.332;2024-01-15T12:59:17;0.70;;;0.70;;
75639;SDS011;64233;51.486;6.332;2024-01-15T13:01:43;1.38;;;1.33;;
75639;SDS011;64233;51.486;6.332;2024-01-15T13:04:09;0.63;;;0.63;;
75639;SDS011;64233;51.486;6.332;2024-01-15T13:06:34;0.52;;;0.52;;
75639;SDS011;64233;51.486;6.332;2024-01-15T13:09:00;0.82;;;0.82;;
75639;SDS011;64233;51.486;6.332;2024-01-15T13:11:26;3.67;;;0.90;;
75639;SDS011;64233;51.486;6.332;2024-01-15T13:13:52;1.40;;;1.33;;
75639;SDS011;64233;51.486;6.332;2024-01-15T13:16:17;0.50;;;0.50;;
75639;SDS011;64233;51.486;6.332;2024-01-15T13:18:43;0.70;;;0.70;;
75639;SDS011;64233;51.486;6.332;2024-01-15T13:21:08;0.60;;;0.60;;
75639;SDS011;64233;51.486;6.332;2024-01-15T13:23:33;0.40;;;0.40;;
75639;SDS011;64233;51.486;6.332;2024-01-15T13:25:59;0.60;;;0.60;;
75639;SDS011;64233;51.486;6.332;2024-01-15T13:28:24;1.00;;;0.93;;
75639;SDS011;64233;51.486;6.332;2024-01-15T13:30:49;0.93;;;0.90;;
75639;SDS011;64233;51.486;6.332;2024-01-15T13:33:15;0.88;;;0.82;;
75639;SDS011;64233;51.486;6.332;2024-01-15T13:35:40;0.65;;;0.65;;
75639;SDS011;64233;51.486;6.332;2024-01-15T13:38:05;0.80;;;0.80;;
75639;SDS011;64233;51.486;6.332;2024-01-15T13:40:30;0.50;;;0.50;;
75639;SDS011;64233;51.486;6.332;2024-01-15T13:42:56;1.42;;;0.73;;
75639;SDS011;64233;51.486;6.332;2024-01-15T13:45:21;0.43;;;0.43;;
75639;SDS011;64233;51.486;6.332;2024-01-15T13:47:49;0.45;;;0.45;;
75639;SDS011;64233;51.486;6.332;2024-01-15T13:50:14;0.60;;;0.60;;
75639;SDS011;64233;51.486;6.332;2024-01-15T13:52:39;1.20;;;1.10;;
75639;SDS011;64233;51.486;6.332;2024-01-15T13:55:05;0.70;;;0.70;;
75639;SDS011;64233;51.486;6.332;2024-01-15T13:57:31;0.75;;;0.75;;
75639;SDS011;64233;51.486;6.332;2024-01-15T13:59:56;1.98;;;1.25;;
75639;SDS011;64233;51.486;6.332;2024-01-15T14:02:21;0.60;;;0.60;;
75639;SDS011;64233;51.486;6.332;2024-01-15T14:04:47;0.30;;;0.30;;
75639;SDS011;64233;51.486;6.332;2024-01-15T14:07:13;0.77;;;0.77;;
75639;SDS011;64233;51.486;6.332;2024-01-15T14:09:38;1.30;;;1.20;;
75639;SDS011;64233;51.486;6.332;2024-01-15T14:12:04;1.13;;;1.08;;
75639;SDS011;64233;51.486;6.332;2024-01-15T14:14:30;0.68;;;0.68;;
75639;SDS011;64233;51.486;6.332;2024-01-15T14:16:55;2.35;;;1.77;;
75639;SDS011;64233;51.486;6.332;2024-01-15T14:19:20;0.65;;;0.65;;
75639;SDS011;64233;51.486;6.332;2024-01-15T14:21:46;0.98;;;0.98;;
75639;SDS011;64233;51.486;6.332;2024-01-15T14:24:11;0.95;;;0.93;;
75639;SDS011;64233;51.486;6.332;2024-01-15T14:26:36;1.10;;;0.90;;
75639;SDS011;64233;51.486;6.332;2024-01-15T14:29:02;1.00;;;0.82;;
75639;SDS011;64233;51.486;6.332;2024-01-15T14:31:27;0.40;;;0.40;;
75639;SDS011;64233;51.486;6.332;2024-01-15T14:33:53;0.93;;;0.88;;
75639;SDS011;64233;51.486;6.332;2024-01-15T14:36:20;0.88;;;0.50;;
75639;SDS011;64233;51.486;6.332;2024-01-15T14:38:45;1.02;;;1.02;;
75639;SDS011;64233;51.486;6.332;2024-01-15T14:41:10;0.98;;;0.98;;
75639;SDS011;64233;51.486;6.332;2024-01-15T14:43:36;0.80;;;0.80;;